<?xml version="1.0" encoding="UTF-8" standalone="no" ?><gpx xmlns="http://www.topografix.com/GPX/1/1" xmlns:gpxx="http://www.garmin.com/xmlschemas/GpxExtensions/v3" xmlns:wptx1="http://www.garmin.com/xmlschemas/WaypointExtension/v1" xmlns:gpxtpx="http://www.garmin.com/xmlschemas/TrackPointExtension/v1" creator="GuideVTT.com" version="1.1" xmlns:xsi="http://www.w3.org/2001/XMLSchema-instance" xsi:schemaLocation="http://www.topografix.com/GPX/1/1 http://www.topografix.com/GPX/1/1/gpx.xsd http://www.garmin.com/xmlschemas/GpxExtensions/v3 http://www8.garmin.com/xmlschemas/GpxExtensionsv3.xsd http://www.garmin.com/xmlschemas/WaypointExtension/v1 http://www8.garmin.com/xmlschemas/WaypointExtensionv1.xsd http://www.garmin.com/xmlschemas/TrackPointExtension/v1 http://www.garmin.com/xmlschemas/TrackPointExtensionv1.xsd">
<metadata><link href="http://www.garmin.com"><text>Garmin International</text></link><time>2013-06-22T15:13:50Z</time></metadata>
<trk><name>parcours18.gpx</name><extensions><gpxx:TrackExtension><gpxx:DisplayColor>Cyan</gpxx:DisplayColor></gpxx:TrackExtension></extensions><trkseg>
<trkpt lat="46.49485000" lon="6.70886670"><ele>385</ele><time>2003-11-05T15:00:06Z</time></trkpt>
<trkpt lat="46.49483330" lon="6.70881670"><ele>384</ele><time>2003-11-05T15:00:44Z</time></trkpt>
<trkpt lat="46.49503330" lon="6.70903330"><ele>388</ele><time>2003-11-05T15:01:37Z</time></trkpt>
<trkpt lat="46.49468330" lon="6.70971670"><ele>388</ele><time>2003-11-05T15:03:24Z</time></trkpt>
<trkpt lat="46.49401670" lon="6.71065000"><ele>387</ele><time>2003-11-05T15:03:49Z</time></trkpt>
<trkpt lat="46.49356670" lon="6.71090000"><ele>386</ele><time>2003-11-05T15:03:57Z</time></trkpt>
<trkpt lat="46.49296670" lon="6.71195000"><ele>388</ele><time>2003-11-05T15:04:27Z</time></trkpt>
<trkpt lat="46.49266670" lon="6.71230000"><ele>390</ele><time>2003-11-05T15:04:42Z</time></trkpt>
<trkpt lat="46.49230000" lon="6.71278330"><ele>394</ele><time>2003-11-05T15:04:56Z</time></trkpt>
<trkpt lat="46.49208330" lon="6.71315000"><ele>398</ele><time>2003-11-05T15:05:05Z</time></trkpt>
<trkpt lat="46.49200000" lon="6.71343330"><ele>396</ele><time>2003-11-05T15:05:10Z</time></trkpt>
<trkpt lat="46.49198330" lon="6.71396670"><ele>395</ele><time>2003-11-05T15:05:22Z</time></trkpt>
<trkpt lat="46.49191670" lon="6.71453330"><ele>395</ele><time>2003-11-05T15:05:30Z</time></trkpt>
<trkpt lat="46.49171670" lon="6.71535000"><ele>399</ele><time>2003-11-05T15:05:42Z</time></trkpt>
<trkpt lat="46.49150000" lon="6.71580000"><ele>400</ele><time>2003-11-05T15:05:56Z</time></trkpt>
<trkpt lat="46.49073330" lon="6.71703330"><ele>403</ele><time>2003-11-05T15:06:26Z</time></trkpt>
<trkpt lat="46.49030000" lon="6.71741670"><ele>402</ele><time>2003-11-05T15:06:32Z</time></trkpt>
<trkpt lat="46.49015000" lon="6.71761670"><ele>401</ele><time>2003-11-05T15:06:34Z</time></trkpt>
<trkpt lat="46.48983330" lon="6.71786670"><ele>400</ele><time>2003-11-05T15:06:38Z</time></trkpt>
<trkpt lat="46.48880000" lon="6.71955000"><ele>394</ele><time>2003-11-05T15:07:05Z</time></trkpt>
<trkpt lat="46.48851670" lon="6.72003330"><ele>394</ele><time>2003-11-05T15:07:18Z</time></trkpt>
<trkpt lat="46.48831670" lon="6.72060000"><ele>393</ele><time>2003-11-05T15:07:31Z</time></trkpt>
<trkpt lat="46.48820000" lon="6.72098330"><ele>393</ele><time>2003-11-05T15:07:42Z</time></trkpt>
<trkpt lat="46.48813330" lon="6.72150000"><ele>394</ele><time>2003-11-05T15:07:54Z</time></trkpt>
<trkpt lat="46.48818330" lon="6.72321670"><ele>390</ele><time>2003-11-05T15:08:23Z</time></trkpt>
<trkpt lat="46.48835000" lon="6.72410000"><ele>387</ele><time>2003-11-05T15:08:36Z</time></trkpt>
<trkpt lat="46.48833330" lon="6.72518330"><ele>386</ele><time>2003-11-05T15:08:56Z</time></trkpt>
<trkpt lat="46.48836670" lon="6.72590000"><ele>384</ele><time>2003-11-05T15:09:09Z</time></trkpt>
<trkpt lat="46.48861670" lon="6.72688330"><ele>382</ele><time>2003-11-05T15:09:26Z</time></trkpt>
<trkpt lat="46.48876670" lon="6.72730000"><ele>382</ele><time>2003-11-05T15:09:35Z</time></trkpt>
<trkpt lat="46.48880000" lon="6.72783330"><ele>383</ele><time>2003-11-05T15:10:00Z</time></trkpt>
<trkpt lat="46.48885000" lon="6.72781670"><ele>383</ele><time>2003-11-05T15:10:15Z</time></trkpt>
<trkpt lat="46.48893330" lon="6.72793330"><ele>383</ele><time>2003-11-05T15:10:18Z</time></trkpt>
<trkpt lat="46.48901670" lon="6.72798330"><ele>383</ele><time>2003-11-05T15:10:22Z</time></trkpt>
<trkpt lat="46.48906670" lon="6.72805000"><ele>383</ele><time>2003-11-05T15:10:24Z</time></trkpt>
<trkpt lat="46.48928330" lon="6.72886670"><ele>383</ele><time>2003-11-05T15:10:38Z</time></trkpt>
<trkpt lat="46.48968330" lon="6.73016670"><ele>384</ele><time>2003-11-05T15:10:55Z</time></trkpt>
<trkpt lat="46.49000000" lon="6.73110000"><ele>385</ele><time>2003-11-05T15:11:07Z</time></trkpt>
<trkpt lat="46.49013330" lon="6.73133330"><ele>384</ele><time>2003-11-05T15:11:11Z</time></trkpt>
<trkpt lat="46.49045000" lon="6.73240000"><ele>377</ele><time>2003-11-05T15:11:25Z</time></trkpt>
<trkpt lat="46.49073330" lon="6.73360000"><ele>377</ele><time>2003-11-05T15:11:39Z</time></trkpt>
<trkpt lat="46.49088330" lon="6.73405000"><ele>377</ele><time>2003-11-05T15:11:45Z</time></trkpt>
<trkpt lat="46.49110000" lon="6.73525000"><ele>379</ele><time>2003-11-05T15:12:02Z</time></trkpt>
<trkpt lat="46.49125000" lon="6.73566670"><ele>380</ele><time>2003-11-05T15:12:08Z</time></trkpt>
<trkpt lat="46.49130000" lon="6.73700000"><ele>387</ele><time>2003-11-05T15:12:33Z</time></trkpt>
<trkpt lat="46.49126670" lon="6.73783330"><ele>387</ele><time>2003-11-05T15:12:45Z</time></trkpt>
<trkpt lat="46.49105000" lon="6.73891670"><ele>388</ele><time>2003-11-05T15:13:03Z</time></trkpt>
<trkpt lat="46.49103330" lon="6.73935000"><ele>391</ele><time>2003-11-05T15:13:13Z</time></trkpt>
<trkpt lat="46.49140000" lon="6.73985000"><ele>401</ele><time>2003-11-05T15:13:44Z</time></trkpt>
<trkpt lat="46.49148330" lon="6.74015000"><ele>408</ele><time>2003-11-05T15:14:01Z</time></trkpt>
<trkpt lat="46.49145000" lon="6.74053330"><ele>410</ele><time>2003-11-05T15:14:19Z</time></trkpt>
<trkpt lat="46.49150000" lon="6.74090000"><ele>414</ele><time>2003-11-05T15:14:38Z</time></trkpt>
<trkpt lat="46.49180000" lon="6.74203330"><ele>433</ele><time>2003-11-05T15:16:12Z</time></trkpt>
<trkpt lat="46.49191670" lon="6.74295000"><ele>440</ele><time>2003-11-05T15:16:48Z</time></trkpt>
<trkpt lat="46.49191670" lon="6.74361670"><ele>446</ele><time>2003-11-05T15:17:21Z</time></trkpt>
<trkpt lat="46.49170000" lon="6.74375000"><ele>449</ele><time>2003-11-05T15:18:24Z</time></trkpt>
<trkpt lat="46.49156670" lon="6.74375000"><ele>457</ele><time>2003-11-05T15:19:08Z</time></trkpt>
<trkpt lat="46.49135000" lon="6.74413330"><ele>453</ele><time>2003-11-05T15:19:17Z</time></trkpt>
<trkpt lat="46.49131670" lon="6.74436670"><ele>452</ele><time>2003-11-05T15:19:21Z</time></trkpt>
<trkpt lat="46.49125000" lon="6.74455000"><ele>452</ele><time>2003-11-05T15:19:24Z</time></trkpt>
<trkpt lat="46.49105000" lon="6.74463330"><ele>446</ele><time>2003-11-05T15:19:34Z</time></trkpt>
<trkpt lat="46.49081670" lon="6.74496670"><ele>440</ele><time>2003-11-05T15:19:47Z</time></trkpt>
<trkpt lat="46.49073330" lon="6.74566670"><ele>437</ele><time>2003-11-05T15:19:57Z</time></trkpt>
<trkpt lat="46.48990000" lon="6.74718330"><ele>428</ele><time>2003-11-05T15:20:17Z</time></trkpt>
<trkpt lat="46.48961670" lon="6.74801670"><ele>428</ele><time>2003-11-05T15:20:28Z</time></trkpt>
<trkpt lat="46.48946670" lon="6.74875000"><ele>429</ele><time>2003-11-05T15:20:42Z</time></trkpt>
<trkpt lat="46.48916670" lon="6.74976670"><ele>432</ele><time>2003-11-05T15:21:05Z</time></trkpt>
<trkpt lat="46.48856670" lon="6.75036670"><ele>433</ele><time>2003-11-05T15:21:22Z</time></trkpt>
<trkpt lat="46.48841670" lon="6.75061670"><ele>432</ele><time>2003-11-05T15:21:27Z</time></trkpt>
<trkpt lat="46.48835000" lon="6.75106670"><ele>430</ele><time>2003-11-05T15:21:33Z</time></trkpt>
<trkpt lat="46.48816670" lon="6.75156670"><ele>430</ele><time>2003-11-05T15:21:38Z</time></trkpt>
<trkpt lat="46.48790000" lon="6.75203330"><ele>430</ele><time>2003-11-05T15:21:46Z</time></trkpt>
<trkpt lat="46.48760000" lon="6.75270000"><ele>430</ele><time>2003-11-05T15:21:59Z</time></trkpt>
<trkpt lat="46.48711670" lon="6.75358330"><ele>429</ele><time>2003-11-05T15:22:13Z</time></trkpt>
<trkpt lat="46.48700000" lon="6.75381670"><ele>428</ele><time>2003-11-05T15:22:16Z</time></trkpt>
<trkpt lat="46.48668330" lon="6.75425000"><ele>429</ele><time>2003-11-05T15:22:28Z</time></trkpt>
<trkpt lat="46.48620000" lon="6.75466670"><ele>427</ele><time>2003-11-05T15:23:40Z</time></trkpt>
<trkpt lat="46.48575000" lon="6.75521670"><ele>427</ele><time>2003-11-05T15:23:51Z</time></trkpt>
<trkpt lat="46.48448330" lon="6.75741670"><ele>430</ele><time>2003-11-05T15:24:50Z</time></trkpt>
<trkpt lat="46.48423330" lon="6.75780000"><ele>431</ele><time>2003-11-05T15:24:58Z</time></trkpt>
<trkpt lat="46.48400000" lon="6.75800000"><ele>430</ele><time>2003-11-05T15:25:02Z</time></trkpt>
<trkpt lat="46.48331670" lon="6.75895000"><ele>429</ele><time>2003-11-05T15:25:17Z</time></trkpt>
<trkpt lat="46.48210000" lon="6.76033330"><ele>434</ele><time>2003-11-05T15:25:46Z</time></trkpt>
<trkpt lat="46.48153330" lon="6.76108330"><ele>433</ele><time>2003-11-05T15:26:00Z</time></trkpt>
<trkpt lat="46.48051670" lon="6.76278330"><ele>432</ele><time>2003-11-05T15:26:23Z</time></trkpt>
<trkpt lat="46.48026670" lon="6.76340000"><ele>432</ele><time>2003-11-05T15:26:31Z</time></trkpt>
<trkpt lat="46.48005000" lon="6.76368330"><ele>432</ele><time>2003-11-05T15:26:35Z</time></trkpt>
<trkpt lat="46.47980000" lon="6.76418330"><ele>432</ele><time>2003-11-05T15:26:40Z</time></trkpt>
<trkpt lat="46.47970000" lon="6.76440000"><ele>432</ele><time>2003-11-05T15:26:42Z</time></trkpt>
<trkpt lat="46.47931670" lon="6.76583330"><ele>432</ele><time>2003-11-05T15:27:00Z</time></trkpt>
<trkpt lat="46.47898330" lon="6.76683330"><ele>430</ele><time>2003-11-05T15:27:15Z</time></trkpt>
<trkpt lat="46.47863330" lon="6.76768330"><ele>428</ele><time>2003-11-05T15:27:25Z</time></trkpt>
<trkpt lat="46.47840000" lon="6.76846670"><ele>428</ele><time>2003-11-05T15:27:36Z</time></trkpt>
<trkpt lat="46.47825000" lon="6.76951670"><ele>434</ele><time>2003-11-05T15:28:03Z</time></trkpt>
<trkpt lat="46.47801670" lon="6.77016670"><ele>436</ele><time>2003-11-05T15:28:21Z</time></trkpt>
<trkpt lat="46.47775000" lon="6.77105000"><ele>437</ele><time>2003-11-05T15:28:40Z</time></trkpt>
<trkpt lat="46.47736670" lon="6.77166670"><ele>439</ele><time>2003-11-05T15:28:52Z</time></trkpt>
<trkpt lat="46.47708330" lon="6.77250000"><ele>438</ele><time>2003-11-05T15:29:07Z</time></trkpt>
<trkpt lat="46.47691670" lon="6.77323330"><ele>440</ele><time>2003-11-05T15:29:27Z</time></trkpt>
<trkpt lat="46.47648330" lon="6.77455000"><ele>442</ele><time>2003-11-05T15:30:05Z</time></trkpt>
<trkpt lat="46.47646670" lon="6.77470000"><ele>450</ele><time>2003-11-05T15:30:33Z</time></trkpt>
<trkpt lat="46.47633330" lon="6.77485000"><ele>451</ele><time>2003-11-05T15:30:43Z</time></trkpt>
<trkpt lat="46.47611670" lon="6.77596670"><ele>450</ele><time>2003-11-05T15:31:01Z</time></trkpt>
<trkpt lat="46.47603330" lon="6.77613330"><ele>450</ele><time>2003-11-05T15:31:59Z</time></trkpt>
<trkpt lat="46.47596670" lon="6.77661670"><ele>447</ele><time>2003-11-05T15:32:06Z</time></trkpt>
<trkpt lat="46.47608330" lon="6.77690000"><ele>447</ele><time>2003-11-05T15:32:12Z</time></trkpt>
<trkpt lat="46.47631670" lon="6.77695000"><ele>447</ele><time>2003-11-05T15:32:16Z</time></trkpt>
<trkpt lat="46.47623330" lon="6.77743330"><ele>443</ele><time>2003-11-05T15:32:23Z</time></trkpt>
<trkpt lat="46.47603330" lon="6.77761670"><ele>443</ele><time>2003-11-05T15:32:40Z</time></trkpt>
<trkpt lat="46.47633330" lon="6.77840000"><ele>443</ele><time>2003-11-05T15:34:14Z</time></trkpt>
<trkpt lat="46.47648330" lon="6.77836670"><ele>443</ele><time>2003-11-05T15:34:22Z</time></trkpt>
<trkpt lat="46.47756670" lon="6.77920000"><ele>453</ele><time>2003-11-05T15:34:35Z</time></trkpt>
<trkpt lat="46.47773330" lon="6.77988330"><ele>459</ele><time>2003-11-05T15:35:10Z</time></trkpt>
<trkpt lat="46.47775000" lon="6.78026670"><ele>463</ele><time>2003-11-05T15:35:28Z</time></trkpt>
<trkpt lat="46.47781670" lon="6.78051670"><ele>467</ele><time>2003-11-05T15:35:43Z</time></trkpt>
<trkpt lat="46.47820000" lon="6.78101670"><ele>475</ele><time>2003-11-05T15:36:19Z</time></trkpt>
<trkpt lat="46.47835000" lon="6.78115000"><ele>477</ele><time>2003-11-05T15:36:32Z</time></trkpt>
<trkpt lat="46.47858330" lon="6.78106670"><ele>479</ele><time>2003-11-05T15:36:47Z</time></trkpt>
<trkpt lat="46.47898330" lon="6.78048330"><ele>484</ele><time>2003-11-05T15:37:22Z</time></trkpt>
<trkpt lat="46.47936670" lon="6.77980000"><ele>498</ele><time>2003-11-05T15:38:25Z</time></trkpt>
<trkpt lat="46.47945000" lon="6.77950000"><ele>501</ele><time>2003-11-05T15:38:44Z</time></trkpt>
<trkpt lat="46.47946670" lon="6.77903330"><ele>515</ele><time>2003-11-05T15:39:17Z</time></trkpt>
<trkpt lat="46.47945000" lon="6.77898330"><ele>532</ele><time>2003-11-05T15:40:46Z</time></trkpt>
<trkpt lat="46.47945000" lon="6.77860000"><ele>533</ele><time>2003-11-05T15:41:05Z</time></trkpt>
<trkpt lat="46.47960000" lon="6.77821670"><ele>536</ele><time>2003-11-05T15:41:21Z</time></trkpt>
<trkpt lat="46.47981670" lon="6.77783330"><ele>539</ele><time>2003-11-05T15:41:39Z</time></trkpt>
<trkpt lat="46.48010000" lon="6.77686670"><ele>542</ele><time>2003-11-05T15:42:23Z</time></trkpt>
<trkpt lat="46.48100000" lon="6.77680000"><ele>546</ele><time>2003-11-05T15:43:17Z</time></trkpt>
<trkpt lat="46.48105000" lon="6.77675000"><ele>550</ele><time>2003-11-05T15:43:23Z</time></trkpt>
<trkpt lat="46.48116670" lon="6.77643330"><ele>552</ele><time>2003-11-05T15:43:41Z</time></trkpt>
<trkpt lat="46.48148330" lon="6.77575000"><ele>553</ele><time>2003-11-05T15:44:11Z</time></trkpt>
<trkpt lat="46.48171670" lon="6.77540000"><ele>552</ele><time>2003-11-05T15:44:21Z</time></trkpt>
<trkpt lat="46.48181670" lon="6.77510000"><ele>555</ele><time>2003-11-05T15:44:38Z</time></trkpt>
<trkpt lat="46.48198330" lon="6.77495000"><ele>535</ele><time>2003-11-05T15:45:13Z</time></trkpt>
<trkpt lat="46.48200000" lon="6.77480000"><ele>541</ele><time>2003-11-05T15:45:17Z</time></trkpt>
<trkpt lat="46.48246670" lon="6.77415000"><ele>542</ele><time>2003-11-05T15:45:42Z</time></trkpt>
<trkpt lat="46.48221670" lon="6.77383330"><ele>548</ele><time>2003-11-05T15:45:53Z</time></trkpt>
<trkpt lat="46.48175000" lon="6.77368330"><ele>557</ele><time>2003-11-05T15:46:10Z</time></trkpt>
<trkpt lat="46.48138330" lon="6.77325000"><ele>558</ele><time>2003-11-05T15:46:26Z</time></trkpt>
<trkpt lat="46.48101670" lon="6.77241670"><ele>567</ele><time>2003-11-05T15:46:55Z</time></trkpt>
<trkpt lat="46.48110000" lon="6.77220000"><ele>579</ele><time>2003-11-05T15:47:09Z</time></trkpt>
<trkpt lat="46.48175000" lon="6.77131670"><ele>589</ele><time>2003-11-05T15:48:07Z</time></trkpt>
<trkpt lat="46.48193330" lon="6.77096670"><ele>597</ele><time>2003-11-05T15:48:29Z</time></trkpt>
<trkpt lat="46.48246670" lon="6.77046670"><ele>608</ele><time>2003-11-05T15:49:09Z</time></trkpt>
<trkpt lat="46.48266670" lon="6.77018330"><ele>613</ele><time>2003-11-05T15:49:30Z</time></trkpt>
<trkpt lat="46.48275000" lon="6.76995000"><ele>619</ele><time>2003-11-05T15:49:44Z</time></trkpt>
<trkpt lat="46.48286670" lon="6.76928330"><ele>620</ele><time>2003-11-05T15:50:08Z</time></trkpt>
<trkpt lat="46.48331670" lon="6.76865000"><ele>623</ele><time>2003-11-05T15:50:28Z</time></trkpt>
<trkpt lat="46.48333330" lon="6.76866670"><ele>623</ele><time>2003-11-05T15:50:30Z</time></trkpt>
<trkpt lat="46.48350000" lon="6.76836670"><ele>625</ele><time>2003-11-05T15:50:44Z</time></trkpt>
<trkpt lat="46.48385000" lon="6.76756670"><ele>621</ele><time>2003-11-05T15:51:20Z</time></trkpt>
<trkpt lat="46.48430000" lon="6.76673330"><ele>621</ele><time>2003-11-05T15:52:02Z</time></trkpt>
<trkpt lat="46.48463330" lon="6.76618330"><ele>621</ele><time>2003-11-05T15:52:27Z</time></trkpt>
<trkpt lat="46.48505000" lon="6.76425000"><ele>623</ele><time>2003-11-05T15:52:40Z</time></trkpt>
<trkpt lat="46.48533330" lon="6.76323330"><ele>624</ele><time>2003-11-05T15:52:54Z</time></trkpt>
<trkpt lat="46.48571670" lon="6.76270000"><ele>627</ele><time>2003-11-05T15:53:08Z</time></trkpt>
<trkpt lat="46.48596670" lon="6.76213330"><ele>627</ele><time>2003-11-05T15:53:22Z</time></trkpt>
<trkpt lat="46.48626670" lon="6.76196670"><ele>635</ele><time>2003-11-05T15:53:36Z</time></trkpt>
<trkpt lat="46.48633330" lon="6.76203330"><ele>653</ele><time>2003-11-05T15:55:11Z</time></trkpt>
<trkpt lat="46.48685000" lon="6.76145000"><ele>653</ele><time>2003-11-05T15:55:26Z</time></trkpt>
<trkpt lat="46.48825000" lon="6.76000000"><ele>651</ele><time>2003-11-05T15:55:56Z</time></trkpt>
<trkpt lat="46.48863330" lon="6.75955000"><ele>647</ele><time>2003-11-05T15:56:09Z</time></trkpt>
<trkpt lat="46.48891670" lon="6.75926670"><ele>644</ele><time>2003-11-05T15:56:17Z</time></trkpt>
<trkpt lat="46.48941670" lon="6.75825000"><ele>646</ele><time>2003-11-05T15:56:36Z</time></trkpt>
<trkpt lat="46.49011670" lon="6.75681670"><ele>644</ele><time>2003-11-05T15:57:05Z</time></trkpt>
<trkpt lat="46.49023330" lon="6.75600000"><ele>624</ele><time>2003-11-05T16:10:43Z</time></trkpt>
<trkpt lat="46.49043330" lon="6.75500000"><ele>622</ele><time>2003-11-05T16:10:53Z</time></trkpt>
<trkpt lat="46.49068330" lon="6.75428330"><ele>618</ele><time>2003-11-05T16:11:00Z</time></trkpt>
<trkpt lat="46.49171670" lon="6.75335000"><ele>617</ele><time>2003-11-05T16:11:14Z</time></trkpt>
<trkpt lat="46.49195000" lon="6.75158330"><ele>594</ele><time>2003-11-05T16:11:30Z</time></trkpt>
<trkpt lat="46.49243330" lon="6.75055000"><ele>583</ele><time>2003-11-05T16:11:40Z</time></trkpt>
<trkpt lat="46.49301670" lon="6.74886670"><ele>554</ele><time>2003-11-05T16:12:00Z</time></trkpt>
<trkpt lat="46.49296670" lon="6.74853330"><ele>519</ele><time>2003-11-05T16:13:32Z</time></trkpt>
<trkpt lat="46.49285000" lon="6.74843330"><ele>518</ele><time>2003-11-05T16:13:40Z</time></trkpt>
<trkpt lat="46.49250000" lon="6.74890000"><ele>517</ele><time>2003-11-05T16:13:46Z</time></trkpt>
<trkpt lat="46.49163330" lon="6.74936670"><ele>513</ele><time>2003-11-05T16:13:57Z</time></trkpt>
<trkpt lat="46.49108330" lon="6.74948330"><ele>504</ele><time>2003-11-05T16:14:08Z</time></trkpt>
<trkpt lat="46.49060000" lon="6.74911670"><ele>498</ele><time>2003-11-05T16:14:22Z</time></trkpt>
<trkpt lat="46.49051670" lon="6.74901670"><ele>495</ele><time>2003-11-05T16:14:31Z</time></trkpt>
<trkpt lat="46.49066670" lon="6.74873330"><ele>495</ele><time>2003-11-05T16:14:51Z</time></trkpt>
<trkpt lat="46.49168330" lon="6.74723330"><ele>495</ele><time>2003-11-05T16:14:55Z</time></trkpt>
<trkpt lat="46.49236670" lon="6.74478330"><ele>485</ele><time>2003-11-05T16:15:22Z</time></trkpt>
<trkpt lat="46.49235000" lon="6.74433330"><ele>483</ele><time>2003-11-05T16:15:30Z</time></trkpt>
<trkpt lat="46.49221670" lon="6.74360000"><ele>483</ele><time>2003-11-05T16:15:36Z</time></trkpt>
<trkpt lat="46.49238330" lon="6.74325000"><ele>483</ele><time>2003-11-05T16:16:37Z</time></trkpt>
<trkpt lat="46.49250000" lon="6.74283330"><ele>482</ele><time>2003-11-05T16:16:41Z</time></trkpt>
<trkpt lat="46.49240000" lon="6.74203330"><ele>476</ele><time>2003-11-05T16:16:52Z</time></trkpt>
<trkpt lat="46.49258330" lon="6.74090000"><ele>471</ele><time>2003-11-05T16:17:01Z</time></trkpt>
<trkpt lat="46.49266670" lon="6.74051670"><ele>467</ele><time>2003-11-05T16:17:04Z</time></trkpt>
<trkpt lat="46.49273330" lon="6.73891670"><ele>459</ele><time>2003-11-05T16:17:16Z</time></trkpt>
<trkpt lat="46.49301670" lon="6.73783330"><ele>454</ele><time>2003-11-05T16:17:25Z</time></trkpt>
<trkpt lat="46.49355000" lon="6.73630000"><ele>451</ele><time>2003-11-05T16:17:42Z</time></trkpt>
<trkpt lat="46.49358330" lon="6.73428330"><ele>450</ele><time>2003-11-05T16:18:01Z</time></trkpt>
<trkpt lat="46.49425000" lon="6.73470000"><ele>444</ele><time>2003-11-05T16:18:15Z</time></trkpt>
<trkpt lat="46.49428330" lon="6.73473330"><ele>443</ele><time>2003-11-05T16:18:33Z</time></trkpt>
<trkpt lat="46.49476670" lon="6.73470000"><ele>445</ele><time>2003-11-05T16:18:58Z</time></trkpt>
<trkpt lat="46.49533330" lon="6.73450000"><ele>454</ele><time>2003-11-05T16:20:22Z</time></trkpt>
<trkpt lat="46.49583330" lon="6.73440000"><ele>455</ele><time>2003-11-05T16:20:59Z</time></trkpt>
<trkpt lat="46.49611670" lon="6.73443330"><ele>456</ele><time>2003-11-05T16:21:22Z</time></trkpt>
<trkpt lat="46.49660000" lon="6.73461670"><ele>465</ele><time>2003-11-05T16:22:21Z</time></trkpt>
<trkpt lat="46.49670000" lon="6.73455000"><ele>463</ele><time>2003-11-05T16:22:32Z</time></trkpt>
<trkpt lat="46.49656670" lon="6.73418330"><ele>465</ele><time>2003-11-05T16:22:50Z</time></trkpt>
<trkpt lat="46.49635000" lon="6.73381670"><ele>465</ele><time>2003-11-05T16:23:03Z</time></trkpt>
<trkpt lat="46.49580000" lon="6.73341670"><ele>469</ele><time>2003-11-05T16:23:20Z</time></trkpt>
<trkpt lat="46.49526670" lon="6.73270000"><ele>474</ele><time>2003-11-05T16:23:35Z</time></trkpt>
<trkpt lat="46.49478330" lon="6.73193330"><ele>477</ele><time>2003-11-05T16:23:54Z</time></trkpt>
<trkpt lat="46.49410000" lon="6.73088330"><ele>483</ele><time>2003-11-05T16:24:20Z</time></trkpt>
<trkpt lat="46.49401670" lon="6.73030000"><ele>485</ele><time>2003-11-05T16:24:32Z</time></trkpt>
<trkpt lat="46.49401670" lon="6.72965000"><ele>488</ele><time>2003-11-05T16:24:44Z</time></trkpt>
<trkpt lat="46.49378330" lon="6.72841670"><ele>493</ele><time>2003-11-05T16:25:21Z</time></trkpt>
<trkpt lat="46.49378330" lon="6.72798330"><ele>497</ele><time>2003-11-05T16:25:42Z</time></trkpt>
<trkpt lat="46.49418330" lon="6.72751670"><ele>496</ele><time>2003-11-05T16:25:49Z</time></trkpt>
<trkpt lat="46.49453330" lon="6.72700000"><ele>495</ele><time>2003-11-05T16:25:54Z</time></trkpt>
<trkpt lat="46.49498330" lon="6.72630000"><ele>492</ele><time>2003-11-05T16:26:00Z</time></trkpt>
<trkpt lat="46.49505000" lon="6.72606670"><ele>492</ele><time>2003-11-05T16:26:02Z</time></trkpt>
<trkpt lat="46.49488330" lon="6.72581670"><ele>491</ele><time>2003-11-05T16:26:05Z</time></trkpt>
<trkpt lat="46.49451670" lon="6.72546670"><ele>488</ele><time>2003-11-05T16:26:10Z</time></trkpt>
<trkpt lat="46.49436670" lon="6.72506670"><ele>488</ele><time>2003-11-05T16:26:14Z</time></trkpt>
<trkpt lat="46.49416670" lon="6.72125000"><ele>486</ele><time>2003-11-05T16:26:46Z</time></trkpt>
<trkpt lat="46.49415000" lon="6.72006670"><ele>486</ele><time>2003-11-05T16:27:00Z</time></trkpt>
<trkpt lat="46.49418330" lon="6.71846670"><ele>490</ele><time>2003-11-05T16:27:32Z</time></trkpt>
<trkpt lat="46.49416670" lon="6.71763330"><ele>490</ele><time>2003-11-05T16:27:46Z</time></trkpt>
<trkpt lat="46.49433330" lon="6.71666670"><ele>491</ele><time>2003-11-05T16:28:04Z</time></trkpt>
<trkpt lat="46.49513330" lon="6.71525000"><ele>490</ele><time>2003-11-05T16:28:32Z</time></trkpt>
<trkpt lat="46.49521670" lon="6.71501670"><ele>489</ele><time>2003-11-05T16:28:39Z</time></trkpt>
<trkpt lat="46.49518330" lon="6.71513330"><ele>498</ele><time>2003-11-05T16:29:20Z</time></trkpt>
<trkpt lat="46.49513330" lon="6.71488330"><ele>496</ele><time>2003-11-05T16:29:27Z</time></trkpt>
<trkpt lat="46.49488330" lon="6.71498330"><ele>495</ele><time>2003-11-05T16:29:33Z</time></trkpt>
<trkpt lat="46.49468330" lon="6.71515000"><ele>495</ele><time>2003-11-05T16:29:36Z</time></trkpt>
<trkpt lat="46.49448330" lon="6.71546670"><ele>492</ele><time>2003-11-05T16:29:45Z</time></trkpt>
<trkpt lat="46.49385000" lon="6.71620000"><ele>491</ele><time>2003-11-05T16:30:07Z</time></trkpt>
<trkpt lat="46.49341670" lon="6.71630000"><ele>487</ele><time>2003-11-05T16:30:45Z</time></trkpt>
<trkpt lat="46.49296670" lon="6.71650000"><ele>485</ele><time>2003-11-05T16:30:51Z</time></trkpt>
<trkpt lat="46.49283330" lon="6.71666670"><ele>481</ele><time>2003-11-05T16:30:53Z</time></trkpt>
<trkpt lat="46.49245000" lon="6.71761670"><ele>467</ele><time>2003-11-05T16:31:03Z</time></trkpt>
<trkpt lat="46.49200000" lon="6.71820000"><ele>460</ele><time>2003-11-05T16:31:09Z</time></trkpt>
<trkpt lat="46.49171670" lon="6.71851670"><ele>453</ele><time>2003-11-05T16:31:13Z</time></trkpt>
<trkpt lat="46.49111670" lon="6.71856670"><ele>445</ele><time>2003-11-05T16:31:21Z</time></trkpt>
<trkpt lat="46.49100000" lon="6.71816670"><ele>441</ele><time>2003-11-05T16:31:27Z</time></trkpt>
<trkpt lat="46.49130000" lon="6.71745000"><ele>438</ele><time>2003-11-05T16:31:42Z</time></trkpt>
<trkpt lat="46.49153330" lon="6.71701670"><ele>442</ele><time>2003-11-05T16:31:52Z</time></trkpt>
<trkpt lat="46.49153330" lon="6.71695000"><ele>442</ele><time>2003-11-05T16:31:56Z</time></trkpt>
<trkpt lat="46.49160000" lon="6.71695000"><ele>442</ele><time>2003-11-05T16:32:01Z</time></trkpt>
<trkpt lat="46.49156670" lon="6.71691670"><ele>442</ele><time>2003-11-05T16:32:06Z</time></trkpt>
<trkpt lat="46.49165000" lon="6.71688330"><ele>442</ele><time>2003-11-05T16:33:24Z</time></trkpt>
<trkpt lat="46.49200000" lon="6.71658330"><ele>441</ele><time>2003-11-05T16:33:37Z</time></trkpt>
<trkpt lat="46.49235000" lon="6.71636670"><ele>440</ele><time>2003-11-05T16:33:49Z</time></trkpt>
<trkpt lat="46.49273330" lon="6.71591670"><ele>440</ele><time>2003-11-05T16:34:04Z</time></trkpt>
<trkpt lat="46.49325000" lon="6.71461670"><ele>442</ele><time>2003-11-05T16:34:26Z</time></trkpt>
<trkpt lat="46.49348330" lon="6.71410000"><ele>444</ele><time>2003-11-05T16:34:34Z</time></trkpt>
<trkpt lat="46.49351670" lon="6.71395000"><ele>444</ele><time>2003-11-05T16:34:36Z</time></trkpt>
<trkpt lat="46.49356670" lon="6.71323330"><ele>446</ele><time>2003-11-05T16:34:48Z</time></trkpt>
<trkpt lat="46.49365000" lon="6.71313330"><ele>444</ele><time>2003-11-05T16:34:58Z</time></trkpt>
<trkpt lat="46.49363330" lon="6.71316670"><ele>442</ele><time>2003-11-05T16:35:29Z</time></trkpt>
<trkpt lat="46.49361670" lon="6.71293330"><ele>439</ele><time>2003-11-05T16:35:38Z</time></trkpt>
<trkpt lat="46.49395000" lon="6.71231670"><ele>438</ele><time>2003-11-05T16:35:52Z</time></trkpt>
<trkpt lat="46.49410000" lon="6.71181670"><ele>436</ele><time>2003-11-05T16:36:08Z</time></trkpt>
<trkpt lat="46.49403330" lon="6.71156670"><ele>432</ele><time>2003-11-05T16:36:54Z</time></trkpt>
<trkpt lat="46.49401670" lon="6.71110000"><ele>430</ele><time>2003-11-05T16:36:57Z</time></trkpt>
<trkpt lat="46.49416670" lon="6.71070000"><ele>427</ele><time>2003-11-05T16:37:04Z</time></trkpt>
<trkpt lat="46.49455000" lon="6.70995000"><ele>426</ele><time>2003-11-05T16:37:16Z</time></trkpt>
<trkpt lat="46.49505000" lon="6.70910000"><ele>426</ele><time>2003-11-05T16:37:34Z</time></trkpt>
<trkpt lat="46.49483330" lon="6.70890000"><ele>382</ele><time>2003-11-05T16:39:07Z</time></trkpt>
</trkseg></trk></gpx>